METAR Data
IDs: Format: Raw Decoded Include TAF

Data at: 0815 UTC 03 Aug 2021

UUDD 030800Z 26005MPS 200V300 9999 BKN023 20/14 Q1009 RMK WS R32L R88/CLRD60 NOSIG